sensor_id;sensor_type;location;lat;lon;timestamp;temperature;humidity
22161;DHT22;49035;48.812;11.762;2022-10-16T00:00:57;13.10;99.90
22161;DHT22;49035;48.812;11.762;2022-10-16T00:03:22;13.10;99.90
22161;DHT22;49035;48.812;11.762;2022-10-16T00:05:48;13.00;99.90
22161;DHT22;49035;48.812;11.762;2022-10-16T00:08:14;12.90;99.90
22161;DHT22;49035;48.812;11.762;2022-10-16T00:10:40;12.80;99.90
22161;DHT22;49035;48.812;11.762;2022-10-16T00:13:06;12.70;99.90
22161;DHT22;49035;48.812;11.762;2022-10-16T00:15:36;12.60;99.90
22161;DHT22;49035;48.812;11.762;2022-10-16T00:18:03;12.60;99.90
22161;DHT22;49035;48.812;11.762;2022-10-16T00:20:29;12.60;99.90
22161;DHT22;49035;48.812;11.762;2022-10-16T00:22:56;12.60;99.90
22161;DHT22;49035;48.812;11.762;2022-10-16T00:25:22;12.50;99.90
22161;DHT22;49035;48.812;11.762;2022-10-16T00:27:48;12.50;99.90
22161;DHT22;49035;48.812;11.762;2022-10-16T00:30:14;12.60;99.90
22161;DHT22;49035;48.812;11.762;2022-10-16T00:32:39;12.60;99.90
22161;DHT22;49035;48.812;11.762;2022-10-16T00:35:05;12.70;99.90
22161;DHT22;49035;48.812;11.762;2022-10-16T00:37:31;12.70;99.90
22161;DHT22;49035;48.812;11.762;2022-10-16T00:39:56;12.70;99.90
22161;DHT22;49035;48.812;11.762;2022-10-16T00:42:22;12.50;99.90
22161;DHT22;49035;48.812;11.762;2022-10-16T00:44:53;12.50;99.90
22161;DHT22;49035;48.812;11.762;2022-10-16T00:49:56;12.40;99.90
22161;DHT22;49035;48.812;11.762;2022-10-16T00:52:23;12.30;99.90
22161;DHT22;49035;48.812;11.762;2022-10-16T00:54:50;12.30;99.90
22161;DHT22;49035;48.812;11.762;2022-10-16T00:57:17;12.20;99.90
22161;DHT22;49035;48.812;11.762;2022-10-16T00:59:43;12.20;99.90
22161;DHT22;49035;48.812;11.762;2022-10-16T01:02:13;12.20;99.90
22161;DHT22;49035;48.812;11.762;2022-10-16T01:04:46;12.10;99.90
22161;DHT22;49035;48.812;11.762;2022-10-16T01:15:36;12.00;99.90
22161;DHT22;49035;48.812;11.762;2022-10-16T01:20:44;11.90;99.90
22161;DHT22;49035;48.812;11.762;2022-10-16T01:26:25;12.00;99.90
22161;DHT22;49035;48.812;11.762;2022-10-16T01:29:00;12.10;99.90
22161;DHT22;49035;48.812;11.762;2022-10-16T01:31:32;12.00;99.90
22161;DHT22;49035;48.812;11.762;2022-10-16T01:34:06;11.90;99.90
22161;DHT22;49035;48.812;11.762;2022-10-16T01:36:45;11.80;99.90
22161;DHT22;49035;48.812;11.762;2022-10-16T01:39:13;11.80;99.90
22161;DHT22;49035;48.812;11.762;2022-10-16T01:41:44;11.80;99.90
22161;DHT22;49035;48.812;11.762;2022-10-16T01:44:22;11.80;99.90
22161;DHT22;49035;48.812;11.762;2022-10-16T01:46:50;11.80;99.90
22161;DHT22;49035;48.812;11.762;2022-10-16T01:49:17;11.60;99.90
22161;DHT22;49035;48.812;11.762;2022-10-16T01:51:45;11.50;99.90
22161;DHT22;49035;48.812;11.762;2022-10-16T01:54:13;11.50;99.90
22161;DHT22;49035;48.812;11.762;2022-10-16T01:56:41;11.50;99.90
22161;DHT22;49035;48.812;11.762;2022-10-16T01:59:12;11.40;99.90
22161;DHT22;49035;48.812;11.762;2022-10-16T02:01:41;11.30;99.90
22161;DHT22;49035;48.812;11.762;2022-10-16T02:04:17;11.30;99.90
22161;DHT22;49035;48.812;11.762;2022-10-16T02:06:44;11.30;99.90
22161;DHT22;49035;48.812;11.762;2022-10-16T02:09:10;11.20;99.90
22161;DHT22;49035;48.812;11.762;2022-10-16T02:11:36;11.30;99.90
22161;DHT22;49035;48.812;11.762;2022-10-16T02:14:05;11.30;99.90
22161;DHT22;49035;48.812;11.762;2022-10-16T02:16:45;11.20;99.90
22161;DHT22;49035;48.812;11.762;2022-10-16T02:19:13;11.20;99.90
22161;DHT22;49035;48.812;11.762;2022-10-16T02:28:01;11.20;99.90
22161;DHT22;49035;48.812;11.762;2022-10-16T02:32:41;11.30;99.90
22161;DHT22;49035;48.812;11.762;2022-10-16T02:35:07;11.30;99.90
22161;DHT22;49035;48.812;11.762;2022-10-16T02:37:34;11.20;99.90
22161;DHT22;49035;48.812;11.762;2022-10-16T02:40:00;11.30;99.90
22161;DHT22;49035;48.812;11.762;2022-10-16T02:42:33;11.30;99.90
22161;DHT22;49035;48.812;11.762;2022-10-16T02:44:59;11.40;99.90
22161;DHT22;49035;48.812;11.762;2022-10-16T02:47:25;11.40;99.90
22161;DHT22;49035;48.812;11.762;2022-10-16T02:49:50;11.50;99.90
22161;DHT22;49035;48.812;11.762;2022-10-16T02:52:16;11.60;99.90
22161;DHT22;49035;48.812;11.762;2022-10-16T02:54:42;11.60;99.90
22161;DHT22;49035;48.812;11.762;2022-10-16T02:57:07;11.50;99.90
22161;DHT22;49035;48.812;11.762;2022-10-16T02:59:33;11.30;99.90
22161;DHT22;49035;48.812;11.762;2022-10-16T03:01:58;11.20;99.90
22161;DHT22;49035;48.812;11.762;2022-10-16T03:04:24;11.30;99.90
22161;DHT22;49035;48.812;11.762;2022-10-16T03:06:50;11.20;99.90
22161;DHT22;49035;48.812;11.762;2022-10-16T03:09:15;11.10;99.90
22161;DHT22;49035;48.812;11.762;2022-10-16T03:11:41;11.00;99.90
22161;DHT22;49035;48.812;11.762;2022-10-16T03:14:06;10.90;99.90
22161;DHT22;49035;48.812;11.762;2022-10-16T03:16:32;10.80;99.90
22161;DHT22;49035;48.812;11.762;2022-10-16T03:18:58;10.70;99.90
22161;DHT22;49035;48.812;11.762;2022-10-16T03:21:24;10.70;99.90
22161;DHT22;49035;48.812;11.762;2022-10-16T03:23:50;10.70;99.90
22161;DHT22;49035;48.812;11.762;2022-10-16T03:26:15;10.70;99.90
22161;DHT22;49035;48.812;11.762;2022-10-16T03:28:41;10.60;99.90
22161;DHT22;49035;48.812;11.762;2022-10-16T03:31:06;10.70;99.90
22161;DHT22;49035;48.812;11.762;2022-10-16T03:33:33;10.70;99.90
22161;DHT22;49035;48.812;11.762;2022-10-16T03:35:59;10.80;99.90
22161;DHT22;49035;48.812;11.762;2022-10-16T03:38:25;10.70;99.90
22161;DHT22;49035;48.812;11.762;2022-10-16T03:40:51;10.70;99.90
22161;DHT22;49035;48.812;11.762;2022-10-16T03:43:16;10.80;99.90
22161;DHT22;49035;48.812;11.762;2022-10-16T03:45:42;10.70;99.90
22161;DHT22;49035;48.812;11.762;2022-10-16T03:48:10;10.80;99.90
22161;DHT22;49035;48.812;11.762;2022-10-16T03:50:36;10.80;99.90
22161;DHT22;49035;48.812;11.762;2022-10-16T03:53:02;10.90;99.90
22161;DHT22;49035;48.812;11.762;2022-10-16T03:55:27;11.00;99.90
22161;DHT22;49035;48.812;11.762;2022-10-16T03:57:53;11.10;99.90
22161;DHT22;49035;48.812;11.762;2022-10-16T04:00:18;11.10;99.90
22161;DHT22;49035;48.812;11.762;2022-10-16T04:02:44;11.10;99.90
22161;DHT22;49035;48.812;11.762;2022-10-16T04:05:10;11.10;99.90
22161;DHT22;49035;48.812;11.762;2022-10-16T04:07:38;11.20;99.90
22161;DHT22;49035;48.812;11.762;2022-10-16T04:10:04;11.20;99.90
22161;DHT22;49035;48.812;11.762;2022-10-16T04:12:30;11.20;99.90
22161;DHT22;49035;48.812;11.762;2022-10-16T04:14:55;11.20;99.90
22161;DHT22;49035;48.812;11.762;2022-10-16T04:17:21;11.30;99.90
22161;DHT22;49035;48.812;11.762;2022-10-16T04:19:46;11.30;99.90
22161;DHT22;49035;48.812;11.762;2022-10-16T04:22:12;11.20;99.90
22161;DHT22;49035;48.812;11.762;2022-10-16T04:24:38;11.20;99.90
22161;DHT22;49035;48.812;11.762;2022-10-16T04:27:03;11.20;99.90
22161;DHT22;49035;48.812;11.762;2022-10-16T04:29:29;11.20;99.90
22161;DHT22;49035;48.812;11.762;2022-10-16T04:31:54;11.30;99.90
22161;DHT22;49035;48.812;11.762;2022-10-16T04:34:20;11.50;99.90
22161;DHT22;49035;48.812;11.762;2022-10-16T04:36:49;11.50;99.90
22161;DHT22;49035;48.812;11.762;2022-10-16T04:39:15;11.70;99.90
22161;DHT22;49035;48.812;11.762;2022-10-16T04:41:40;11.80;99.90
22161;DHT22;49035;48.812;11.762;2022-10-16T04:44:06;11.70;99.90
22161;DHT22;49035;48.812;11.762;2022-10-16T04:46:32;11.70;99.90
22161;DHT22;49035;48.812;11.762;2022-10-16T04:48:58;11.60;99.90
22161;DHT22;49035;48.812;11.762;2022-10-16T04:51:24;11.60;99.90
22161;DHT22;49035;48.812;11.762;2022-10-16T04:53:51;11.60;99.90
22161;DHT22;49035;48.812;11.762;2022-10-16T04:56:16;11.70;99.90
22161;DHT22;49035;48.812;11.762;2022-10-16T04:58:42;11.60;99.90
22161;DHT22;49035;48.812;11.762;2022-10-16T05:01:07;11.70;99.90
22161;DHT22;49035;48.812;11.762;2022-10-16T05:03:33;11.60;99.90
22161;DHT22;49035;48.812;11.762;2022-10-16T05:05:59;11.60;99.90
22161;DHT22;49035;48.812;11.762;2022-10-16T05:08:24;11.60;99.90
22161;DHT22;49035;48.812;11.762;2022-10-16T05:10:50;11.50;99.90
22161;DHT22;49035;48.812;11.762;2022-10-16T05:13:15;11.60;99.90
22161;DHT22;49035;48.812;11.762;2022-10-16T05:15:41;11.90;99.90
22161;DHT22;49035;48.812;11.762;2022-10-16T05:18:07;11.80;99.90
22161;DHT22;49035;48.812;11.762;2022-10-16T05:20:34;11.80;99.90
22161;DHT22;49035;48.812;11.762;2022-10-16T05:23:00;11.80;99.90
22161;DHT22;49035;48.812;11.762;2022-10-16T05:25:26;11.80;99.90
22161;DHT22;49035;48.812;11.762;2022-10-16T05:27:51;11.70;99.90
22161;DHT22;49035;48.812;11.762;2022-10-16T05:30:18;11.70;99.90
22161;DHT22;49035;48.812;11.762;2022-10-16T05:32:51;11.70;99.90
22161;DHT22;49035;48.812;11.762;2022-10-16T05:35:18;11.70;99.90
22161;DHT22;49035;48.812;11.762;2022-10-16T05:37:44;11.60;99.90
22161;DHT22;49035;48.812;11.762;2022-10-16T05:40:10;11.60;99.90
22161;DHT22;49035;48.812;11.762;2022-10-16T05:42:35;11.50;99.90
22161;DHT22;49035;48.812;11.762;2022-10-16T05:45:03;11.50;99.90
22161;DHT22;49035;48.812;11.762;2022-10-16T05:47:29;11.60;99.90
22161;DHT22;49035;48.812;11.762;2022-10-16T05:49:54;11.60;99.90
22161;DHT22;49035;48.812;11.762;2022-10-16T05:52:21;11.50;99.90
22161;DHT22;49035;48.812;11.762;2022-10-16T05:54:46;11.50;99.90
22161;DHT22;49035;48.812;11.762;2022-10-16T05:57:12;11.60;99.90
22161;DHT22;49035;48.812;11.762;2022-10-16T05:59:37;11.60;99.90
22161;DHT22;49035;48.812;11.762;2022-10-16T06:02:03;11.60;99.90
22161;DHT22;49035;48.812;11.762;2022-10-16T06:04:29;11.70;99.90
22161;DHT22;49035;48.812;11.762;2022-10-16T06:06:58;11.60;99.90
22161;DHT22;49035;48.812;11.762;2022-10-16T06:09:25;11.60;99.90
22161;DHT22;49035;48.812;11.762;2022-10-16T06:11:51;11.70;99.90
22161;DHT22;49035;48.812;11.762;2022-10-16T06:14:17;11.70;99.90
22161;DHT22;49035;48.812;11.762;2022-10-16T06:16:42;11.70;99.90
22161;DHT22;49035;48.812;11.762;2022-10-16T06:19:08;11.70;99.90
22161;DHT22;49035;48.812;11.762;2022-10-16T06:21:34;11.80;99.90
22161;DHT22;49035;48.812;11.762;2022-10-16T06:24:00;11.90;99.90
22161;DHT22;49035;48.812;11.762;2022-10-16T06:26:28;11.90;99.90
22161;DHT22;49035;48.812;11.762;2022-10-16T06:28:55;11.90;99.90
22161;DHT22;49035;48.812;11.762;2022-10-16T06:31:21;12.00;99.90
22161;DHT22;49035;48.812;11.762;2022-10-16T06:33:50;12.20;99.90
22161;DHT22;49035;48.812;11.762;2022-10-16T06:36:17;12.30;99.90
22161;DHT22;49035;48.812;11.762;2022-10-16T06:38:43;12.40;99.90
22161;DHT22;49035;48.812;11.762;2022-10-16T06:41:20;12.60;99.90
22161;DHT22;49035;48.812;11.762;2022-10-16T06:43:46;12.60;99.90
22161;DHT22;49035;48.812;11.762;2022-10-16T06:46:15;12.80;99.90
22161;DHT22;49035;48.812;11.762;2022-10-16T06:48:41;13.00;99.90
22161;DHT22;49035;48.812;11.762;2022-10-16T06:51:09;13.30;99.90
22161;DHT22;49035;48.812;11.762;2022-10-16T06:53:36;13.50;99.90
22161;DHT22;49035;48.812;11.762;2022-10-16T06:56:16;13.60;99.90
22161;DHT22;49035;48.812;11.762;2022-10-16T06:58:42;13.70;99.90
22161;DHT22;49035;48.812;11.762;2022-10-16T07:01:08;13.70;99.90
22161;DHT22;49035;48.812;11.762;2022-10-16T07:03:36;13.70;99.90
22161;DHT22;49035;48.812;11.762;2022-10-16T07:06:04;13.70;99.90
22161;DHT22;49035;48.812;11.762;2022-10-16T07:08:34;13.50;99.90
22161;DHT22;49035;48.812;11.762;2022-10-16T07:11:08;13.50;99.90
22161;DHT22;49035;48.812;11.762;2022-10-16T07:13:38;13.60;99.90
22161;DHT22;49035;48.812;11.762;2022-10-16T07:16:06;13.80;99.90
22161;DHT22;49035;48.812;11.762;2022-10-16T07:18:32;13.90;99.90
22161;DHT22;49035;48.812;11.762;2022-10-16T07:21:13;14.00;99.90
22161;DHT22;49035;48.812;11.762;2022-10-16T07:23:40;14.20;99.90
22161;DHT22;49035;48.812;11.762;2022-10-16T07:26:06;14.40;99.90
22161;DHT22;49035;48.812;11.762;2022-10-16T07:28:33;14.50;99.90
22161;DHT22;49035;48.812;11.762;2022-10-16T07:31:03;14.90;99.90
22161;DHT22;49035;48.812;11.762;2022-10-16T07:33:30;15.10;99.90
22161;DHT22;49035;48.812;11.762;2022-10-16T07:35:56;15.40;99.90
22161;DHT22;49035;48.812;11.762;2022-10-16T07:38:22;15.60;99.90
22161;DHT22;49035;48.812;11.762;2022-10-16T07:40:48;15.80;99.90
22161;DHT22;49035;48.812;11.762;2022-10-16T07:43:20;16.10;99.90
22161;DHT22;49035;48.812;11.762;2022-10-16T07:45:47;16.40;99.90
22161;DHT22;49035;48.812;11.762;2022-10-16T07:48:14;16.60;99.90
22161;DHT22;49035;48.812;11.762;2022-10-16T07:50:39;16.60;99.90
22161;DHT22;49035;48.812;11.762;2022-10-16T07:53:05;16.60;99.90
22161;DHT22;49035;48.812;11.762;2022-10-16T07:55:30;16.70;99.90
22161;DHT22;49035;48.812;11.762;2022-10-16T07:57:56;16.80;99.90
22161;DHT22;49035;48.812;11.762;2022-10-16T08:00:22;16.90;99.90
22161;DHT22;49035;48.812;11.762;2022-10-16T08:02:47;17.00;99.90
22161;DHT22;49035;48.812;11.762;2022-10-16T08:05:13;16.90;99.90
22161;DHT22;49035;48.812;11.762;2022-10-16T08:07:38;17.10;99.90
22161;DHT22;49035;48.812;11.762;2022-10-16T08:10:04;17.40;99.90
22161;DHT22;49035;48.812;11.762;2022-10-16T08:12:30;17.80;99.90
22161;DHT22;49035;48.812;11.762;2022-10-16T08:14:56;18.20;99.90
22161;DHT22;49035;48.812;11.762;2022-10-16T08:17:21;18.70;99.90
22161;DHT22;49035;48.812;11.762;2022-10-16T08:19:47;19.00;99.90
22161;DHT22;49035;48.812;11.762;2022-10-16T08:22:16;19.00;99.90
22161;DHT22;49035;48.812;11.762;2022-10-16T08:24:42;18.90;99.90
22161;DHT22;49035;48.812;11.762;2022-10-16T08:27:07;18.80;99.90
22161;DHT22;49035;48.812;11.762;2022-10-16T08:29:34;18.70;99.90
22161;DHT22;49035;48.812;11.762;2022-10-16T08:32:00;18.80;99.90
22161;DHT22;49035;48.812;11.762;2022-10-16T08:34:25;19.00;99.90
22161;DHT22;49035;48.812;11.762;2022-10-16T08:36:53;19.00;99.90
22161;DHT22;49035;48.812;11.762;2022-10-16T08:39:19;19.10;99.90
22161;DHT22;49035;48.812;11.762;2022-10-16T08:44:50;19.20;99.90
22161;DHT22;49035;48.812;11.762;2022-10-16T08:49:59;19.30;99.90
22161;DHT22;49035;48.812;11.762;2022-10-16T08:52:30;19.50;99.90
22161;DHT22;49035;48.812;11.762;2022-10-16T08:54:57;19.30;99.90
22161;DHT22;49035;48.812;11.762;2022-10-16T08:57:25;19.20;99.90
22161;DHT22;49035;48.812;11.762;2022-10-16T08:59:52;19.30;99.90
22161;DHT22;49035;48.812;11.762;2022-10-16T09:02:29;19.10;99.90
22161;DHT22;49035;48.812;11.762;2022-10-16T09:05:20;19.20;99.90
22161;DHT22;49035;48.812;11.762;2022-10-16T09:08:05;19.30;99.90
22161;DHT22;49035;48.812;11.762;2022-10-16T09:10:57;19.40;99.90
22161;DHT22;49035;48.812;11.762;2022-10-16T09:13:40;19.60;99.90
22161;DHT22;49035;48.812;11.762;2022-10-16T09:16:41;19.70;99.90
22161;DHT22;49035;48.812;11.762;2022-10-16T09:19:15;19.90;99.90
22161;DHT22;49035;48.812;11.762;2022-10-16T09:21:45;20.00;99.90
22161;DHT22;49035;48.812;11.762;2022-10-16T09:24:18;20.00;99.90
22161;DHT22;49035;48.812;11.762;2022-10-16T09:26:45;19.90;99.90
22161;DHT22;49035;48.812;11.762;2022-10-16T09:29:12;19.90;99.90
22161;DHT22;49035;48.812;11.762;2022-10-16T09:31:38;20.00;99.90
22161;DHT22;49035;48.812;11.762;2022-10-16T09:34:05;20.20;99.90
22161;DHT22;49035;48.812;11.762;2022-10-16T09:36:39;20.20;99.90
22161;DHT22;49035;48.812;11.762;2022-10-16T09:39:10;20.10;99.90
22161;DHT22;49035;48.812;11.762;2022-10-16T09:41:42;20.20;99.90
22161;DHT22;49035;48.812;11.762;2022-10-16T09:46:45;20.60;99.90
22161;DHT22;49035;48.812;11.762;2022-10-16T09:49:25;20.60;99.90
22161;DHT22;49035;48.812;11.762;2022-10-16T09:52:12;20.50;99.90
22161;DHT22;49035;48.812;11.762;2022-10-16T09:54:49;20.70;99.90
22161;DHT22;49035;48.812;11.762;2022-10-16T09:57:15;20.70;99.90
22161;DHT22;49035;48.812;11.762;2022-10-16T09:59:52;20.70;99.90
22161;DHT22;49035;48.812;11.762;2022-10-16T10:02:34;20.70;99.90
22161;DHT22;49035;48.812;11.762;2022-10-16T10:05:01;20.80;99.90
22161;DHT22;49035;48.812;11.762;2022-10-16T10:07:30;21.00;99.90
22161;DHT22;49035;48.812;11.762;2022-10-16T10:09:59;21.30;99.90
22161;DHT22;49035;48.812;11.762;2022-10-16T10:12:31;21.70;99.90
22161;DHT22;49035;48.812;11.762;2022-10-16T10:15:04;21.80;99.90
22161;DHT22;49035;48.812;11.762;2022-10-16T10:17:31;21.80;99.90
22161;DHT22;49035;48.812;11.762;2022-10-16T10:19:59;21.80;99.90
22161;DHT22;49035;48.812;11.762;2022-10-16T10:22:45;21.80;99.90
22161;DHT22;49035;48.812;11.762;2022-10-16T10:31:13;22.80;99.90
22161;DHT22;49035;48.812;11.762;2022-10-16T10:36:25;24.40;98.50
22161;DHT22;49035;48.812;11.762;2022-10-16T10:38:59;24.90;96.30
22161;DHT22;49035;48.812;11.762;2022-10-16T10:46:57;25.60;88.50
22161;DHT22;49035;48.812;11.762;2022-10-16T10:55:08;25.80;84.20
22161;DHT22;49035;48.812;11.762;2022-10-16T11:06:08;24.30;92.60
22161;DHT22;49035;48.812;11.762;2022-10-16T11:08:43;24.50;90.90
22161;DHT22;49035;48.812;11.762;2022-10-16T11:14:29;24.30;91.20
22161;DHT22;49035;48.812;11.762;2022-10-16T11:17:07;24.30;91.40
22161;DHT22;49035;48.812;11.762;2022-10-16T11:19:46;24.50;90.40
22161;DHT22;49035;48.812;11.762;2022-10-16T11:22:19;24.60;86.10
22161;DHT22;49035;48.812;11.762;2022-10-16T11:25:17;24.40;91.20
22161;DHT22;49035;48.812;11.762;2022-10-16T11:30:26;24.20;90.40
22161;DHT22;49035;48.812;11.762;2022-10-16T11:41:20;23.70;91.80
22161;DHT22;49035;48.812;11.762;2022-10-16T11:46:29;23.70;91.10
22161;DHT22;49035;48.812;11.762;2022-10-16T11:49:16;23.70;90.80
22161;DHT22;49035;48.812;11.762;2022-10-16T11:51:49;23.60;90.70
22161;DHT22;49035;48.812;11.762;2022-10-16T11:54:34;23.70;90.80
22161;DHT22;49035;48.812;11.762;2022-10-16T11:57:17;24.20;90.10
22161;DHT22;49035;48.812;11.762;2022-10-16T12:00:21;24.80;90.10
22161;DHT22;49035;48.812;11.762;2022-10-16T12:06:06;25.30;86.20
22161;DHT22;49035;48.812;11.762;2022-10-16T12:08:37;25.30;84.00
22161;DHT22;49035;48.812;11.762;2022-10-16T12:11:53;25.30;83.20
22161;DHT22;49035;48.812;11.762;2022-10-16T12:16:57;24.70;88.60
22161;DHT22;49035;48.812;11.762;2022-10-16T12:19:26;24.80;88.10
22161;DHT22;49035;48.812;11.762;2022-10-16T12:21:59;24.90;84.40
22161;DHT22;49035;48.812;11.762;2022-10-16T12:24:43;24.40;84.90
22161;DHT22;49035;48.812;11.762;2022-10-16T12:27:41;24.50;88.90
22161;DHT22;49035;48.812;11.762;2022-10-16T12:30:07;24.70;90.00
22161;DHT22;49035;48.812;11.762;2022-10-16T12:32:55;24.80;88.10
22161;DHT22;49035;48.812;11.762;2022-10-16T12:35:25;24.80;86.40
22161;DHT22;49035;48.812;11.762;2022-10-16T12:37:51;25.00;86.80
22161;DHT22;49035;48.812;11.762;2022-10-16T12:40:31;25.20;81.20
22161;DHT22;49035;48.812;11.762;2022-10-16T12:42:57;25.20;82.30
22161;DHT22;49035;48.812;11.762;2022-10-16T12:45:31;25.30;86.20
22161;DHT22;49035;48.812;11.762;2022-10-16T12:48:02;25.60;85.20
22161;DHT22;49035;48.812;11.762;2022-10-16T12:50:36;25.80;83.80
22161;DHT22;49035;48.812;11.762;2022-10-16T12:53:04;26.00;84.60
22161;DHT22;49035;48.812;11.762;2022-10-16T13:01:41;26.20;80.00
22161;DHT22;49035;48.812;11.762;2022-10-16T13:06:51;25.80;83.20
22161;DHT22;49035;48.812;11.762;2022-10-16T13:09:40;25.70;87.10
22161;DHT22;49035;48.812;11.762;2022-10-16T13:12:35;25.50;83.70
22161;DHT22;49035;48.812;11.762;2022-10-16T13:15:19;25.50;82.00
22161;DHT22;49035;48.812;11.762;2022-10-16T13:18:03;24.70;85.10
22161;DHT22;49035;48.812;11.762;2022-10-16T13:20:46;24.30;86.80
22161;DHT22;49035;48.812;11.762;2022-10-16T13:23:21;24.00;86.80
22161;DHT22;49035;48.812;11.762;2022-10-16T13:28:41;23.30;89.90
22161;DHT22;49035;48.812;11.762;2022-10-16T13:31:20;23.40;90.90
22161;DHT22;49035;48.812;11.762;2022-10-16T13:33:49;23.40;90.30
22161;DHT22;49035;48.812;11.762;2022-10-16T13:36:35;23.20;90.60
22161;DHT22;49035;48.812;11.762;2022-10-16T13:41:29;23.10;91.10
22161;DHT22;49035;48.812;11.762;2022-10-16T13:43:56;23.20;90.70
22161;DHT22;49035;48.812;11.762;2022-10-16T13:46:24;23.30;92.10
22161;DHT22;49035;48.812;11.762;2022-10-16T13:49:04;23.50;91.70
22161;DHT22;49035;48.812;11.762;2022-10-16T13:51:31;23.60;90.50
22161;DHT22;49035;48.812;11.762;2022-10-16T13:53:58;23.60;90.20
22161;DHT22;49035;48.812;11.762;2022-10-16T13:56:29;23.50;90.20
22161;DHT22;49035;48.812;11.762;2022-10-16T13:59:04;23.40;91.50
22161;DHT22;49035;48.812;11.762;2022-10-16T14:01:42;23.50;91.70
22161;DHT22;49035;48.812;11.762;2022-10-16T14:04:11;23.60;91.50
22161;DHT22;49035;48.812;11.762;2022-10-16T14:06:41;23.60;92.00
22161;DHT22;49035;48.812;11.762;2022-10-16T14:09:13;23.60;91.50
22161;DHT22;49035;48.812;11.762;2022-10-16T14:11:48;23.50;91.20
22161;DHT22;49035;48.812;11.762;2022-10-16T14:14:17;23.50;91.50
22161;DHT22;49035;48.812;11.762;2022-10-16T14:16:44;23.50;91.70
22161;DHT22;49035;48.812;11.762;2022-10-16T14:19:23;23.50;92.00
22161;DHT22;49035;48.812;11.762;2022-10-16T14:21:51;23.50;91.80
22161;DHT22;49035;48.812;11.762;2022-10-16T14:26:56;23.20;92.20
22161;DHT22;49035;48.812;11.762;2022-10-16T14:29:23;23.20;92.30
22161;DHT22;49035;48.812;11.762;2022-10-16T14:32:00;23.10;91.50
22161;DHT22;49035;48.812;11.762;2022-10-16T14:34:32;23.10;92.10
22161;DHT22;49035;48.812;11.762;2022-10-16T14:37:25;23.00;90.90
22161;DHT22;49035;48.812;11.762;2022-10-16T14:39:52;22.80;91.90
22161;DHT22;49035;48.812;11.762;2022-10-16T14:42:20;22.50;91.90
22161;DHT22;49035;48.812;11.762;2022-10-16T14:44:49;22.40;93.20
22161;DHT22;49035;48.812;11.762;2022-10-16T14:47:19;22.40;93.20
22161;DHT22;49035;48.812;11.762;2022-10-16T14:49:50;22.40;94.10
22161;DHT22;49035;48.812;11.762;2022-10-16T14:52:16;22.30;95.90
22161;DHT22;49035;48.812;11.762;2022-10-16T14:54:42;22.30;95.90
22161;DHT22;49035;48.812;11.762;2022-10-16T14:57:19;22.30;96.20
22161;DHT22;49035;48.812;11.762;2022-10-16T14:59:47;22.20;96.00
22161;DHT22;49035;48.812;11.762;2022-10-16T15:04:45;22.20;97.40
22161;DHT22;49035;48.812;11.762;2022-10-16T15:07:11;22.20;97.50
22161;DHT22;49035;48.812;11.762;2022-10-16T15:09:36;22.10;99.90
22161;DHT22;49035;48.812;11.762;2022-10-16T15:12:02;22.10;97.70
22161;DHT22;49035;48.812;11.762;2022-10-16T15:14:27;22.00;99.90
22161;DHT22;49035;48.812;11.762;2022-10-16T15:16:53;22.00;99.90
22161;DHT22;49035;48.812;11.762;2022-10-16T15:19:19;21.90;99.90
22161;DHT22;49035;48.812;11.762;2022-10-16T15:21:44;21.80;99.90
22161;DHT22;49035;48.812;11.762;2022-10-16T15:24:12;21.60;99.90
22161;DHT22;49035;48.812;11.762;2022-10-16T15:26:38;21.30;99.90
22161;DHT22;49035;48.812;11.762;2022-10-16T15:29:04;21.00;99.90
22161;DHT22;49035;48.812;11.762;2022-10-16T15:31:30;20.70;99.90
22161;DHT22;49035;48.812;11.762;2022-10-16T15:33:56;20.40;99.90
22161;DHT22;49035;48.812;11.762;2022-10-16T15:36:28;20.10;99.90
22161;DHT22;49035;48.812;11.762;2022-10-16T15:38:55;19.80;99.90
22161;DHT22;49035;48.812;11.762;2022-10-16T15:41:21;19.70;99.90
22161;DHT22;49035;48.812;11.762;2022-10-16T15:43:51;19.60;99.90
22161;DHT22;49035;48.812;11.762;2022-10-16T15:46:21;19.40;99.90
22161;DHT22;49035;48.812;11.762;2022-10-16T15:48:49;19.10;99.90
22161;DHT22;49035;48.812;11.762;2022-10-16T15:51:15;18.90;99.90
22161;DHT22;49035;48.812;11.762;2022-10-16T15:53:42;18.70;99.90
22161;DHT22;49035;48.812;11.762;2022-10-16T15:56:09;18.40;99.90
22161;DHT22;49035;48.812;11.762;2022-10-16T15:58:35;18.20;99.90
22161;DHT22;49035;48.812;11.762;2022-10-16T16:01:02;18.00;99.90
22161;DHT22;49035;48.812;11.762;2022-10-16T16:03:30;17.80;99.90
22161;DHT22;49035;48.812;11.762;2022-10-16T16:05:56;17.60;99.90
22161;DHT22;49035;48.812;11.762;2022-10-16T16:08:22;17.40;99.90
22161;DHT22;49035;48.812;11.762;2022-10-16T16:11:02;17.20;99.90
22161;DHT22;49035;48.812;11.762;2022-10-16T16:13:28;17.00;99.90
22161;DHT22;49035;48.812;11.762;2022-10-16T16:15:54;16.70;99.90
22161;DHT22;49035;48.812;11.762;2022-10-16T16:18:19;16.60;99.90
22161;DHT22;49035;48.812;11.762;2022-10-16T16:20:45;16.50;99.90
22161;DHT22;49035;48.812;11.762;2022-10-16T16:23:11;16.40;99.90
22161;DHT22;49035;48.812;11.762;2022-10-16T16:25:36;16.30;99.90
22161;DHT22;49035;48.812;11.762;2022-10-16T16:28:02;16.50;99.90
22161;DHT22;49035;48.812;11.762;2022-10-16T16:30:27;16.60;99.90
22161;DHT22;49035;48.812;11.762;2022-10-16T16:32:53;16.40;99.90
22161;DHT22;49035;48.812;11.762;2022-10-16T16:35:19;16.30;99.90
22161;DHT22;49035;48.812;11.762;2022-10-16T16:37:44;16.20;99.90
22161;DHT22;49035;48.812;11.762;2022-10-16T16:40:10;16.20;99.90
22161;DHT22;49035;48.812;11.762;2022-10-16T16:42:35;16.10;99.90
22161;DHT22;49035;48.812;11.762;2022-10-16T16:45:01;15.90;99.90
22161;DHT22;49035;48.812;11.762;2022-10-16T16:47:27;15.90;99.90
22161;DHT22;49035;48.812;11.762;2022-10-16T16:49:52;15.90;99.90
22161;DHT22;49035;48.812;11.762;2022-10-16T16:52:18;15.70;99.90
22161;DHT22;49035;48.812;11.762;2022-10-16T16:54:44;15.60;99.90
22161;DHT22;49035;48.812;11.762;2022-10-16T16:57:17;15.60;99.90
22161;DHT22;49035;48.812;11.762;2022-10-16T16:59:43;15.40;99.90
22161;DHT22;49035;48.812;11.762;2022-10-16T17:02:09;15.30;99.90
22161;DHT22;49035;48.812;11.762;2022-10-16T17:04:34;15.20;99.90
22161;DHT22;49035;48.812;11.762;2022-10-16T17:07:00;15.20;99.90
22161;DHT22;49035;48.812;11.762;2022-10-16T17:09:26;15.30;99.90
22161;DHT22;49035;48.812;11.762;2022-10-16T17:11:52;15.40;99.90